If you wish to contribute or participate in the discussions about articles you are invited to join SKYbrary as a registered user

 Actions

Anaktuvuk Pass Airport

From SKYbrary Wiki

PAKP
Airport
ICAO: PAKP – IATA: AKP
Summary
Name Anaktuvuk Pass Airport
Region North America
Territory Alaska US.gif
Location Anaktuvuk Pass, Alaska
Serving Anaktuvuk Pass
Elevation 640.69 m
2,102 ft
2,102 ft640.69 m
Type medium airport
Coordinates 68° 8' 0.96" N, 151° 44' 34.80" W
Runways
Designator Length Width Surface ROPS
2/20 1463 m4,799.869 ft
30 m98.425 ft
GRAVEL-G /


METAR
Observation PAKP 120656Z AUTO 01006KT 8SM -SN FEW010 M33/M36 A2905 RMK AO2 SLP947 P0000 T13331361 FZRANO
Station Anaktuvuk Pass, Anaktuvuk Pass Airport
Date/Time 12 December 2018 06:56:00
Wind direction 10°
Wind speed 06 kts
Lowest cloud amount few clouds
Temperature
Dew point
Humidity 75%
QNH hPa
Weather condition light snow

Maps

Terrain

Loading map...

Airport Layout

Loading map...


Accidents & Serious Incidents at or in vicinity of PAKP

None on SKYbrary